Time;durP1;ratioP1;P1;durP2;ratioP2;P2;SDS_P1;SDS_P2;PMS_P1;PMS_P2;Temp;Humidity;BMP_temperature;BMP_pressure;BME280_temperature;BME280_humidity;BME280_pressure;Samples;Min_cycle;Max_cycle;Signal;HPM_P1;HPM_P2
2022/04/12 00:00:28;;;;;;;14.57;11.00;;;8.90;99.90;;;;;;5003014;28;20052;-67
2022/04/12 00:02:54;;;;;;;16.55;11.38;;;8.90;99.90;;;;;;5034387;28;20037;-67
2022/04/12 00:05:20;;;;;;;13.75;11.00;;;8.70;99.90;;;;;;5034527;28;20045;-67
2022/04/12 00:07:46;;;;;;;15.07;10.88;;;8.80;99.90;;;;;;5016722;28;20064;-68
2022/04/12 00:10:12;;;;;;;15.73;11.63;;;8.80;99.90;;;;;;5030809;28;20042;-67
2022/04/12 00:12:38;;;;;;;15.93;11.00;;;8.70;99.90;;;;;;5014479;28;20060;-68
2022/04/12 00:15:06;;;;;;;14.40;10.85;;;8.60;99.90;;;;;;5014360;28;20120;-67
2022/04/12 00:20:16;;;;;;;18.10;11.77;;;8.60;99.90;;;;;;5018493;28;20120;-67
2022/04/12 00:22:42;;;;;;;15.55;11.00;;;8.60;99.90;;;;;;5016692;28;20095;-67
2022/04/12 00:25:09;;;;;;;14.95;10.68;;;8.50;99.90;;;;;;5033911;28;20101;-67
2022/04/12 00:27:40;;;;;;;14.25;10.82;;;8.50;99.90;;;;;;5033682;28;20052;-67
2022/04/12 00:30:12;;;;;;;16.02;10.90;;;8.50;99.90;;;;;;5031123;28;20836;-68
2022/04/12 00:32:38;;;;;;;16.63;11.23;;;8.40;99.90;;;;;;4996690;28;20061;-67
2022/04/12 00:35:04;;;;;;;15.43;10.88;;;8.30;99.90;;;;;;5014377;28;20065;-67
2022/04/12 00:37:30;;;;;;;13.73;10.77;;;8.30;99.90;;;;;;5013969;28;20040;-67
2022/04/12 00:39:56;;;;;;;16.08;10.98;;;8.30;99.90;;;;;;4997704;28;20045;-68
2022/04/12 00:42:22;;;;;;;14.45;11.20;;;8.20;99.90;;;;;;5034084;28;20123;-67
2022/04/12 00:44:48;;;;;;;15.77;11.05;;;8.20;99.90;;;;;;5016221;28;20060;-67
2022/04/12 00:47:14;;;;;;;14.18;10.65;;;8.20;99.90;;;;;;5015893;28;20052;-67
2022/04/12 00:49:41;;;;;;;15.50;10.98;;;8.10;99.90;;;;;;5033649;28;20057;-67
2022/04/12 00:52:08;;;;;;;15.45;11.23;;;8.10;99.90;;;;;;4997568;28;20158;-68
2022/04/12 00:54:35;;;;;;;16.75;11.52;;;8.10;99.90;;;;;;4996606;28;20053;-67
2022/04/12 00:57:03;;;;;;;13.93;10.98;;;8.10;99.90;;;;;;5013591;28;20037;-67
2022/04/12 00:59:31;;;;;;;16.85;10.90;;;8.10;99.90;;;;;;4997033;28;20471;-67
2022/04/12 01:01:56;;;;;;;13.80;10.57;;;8.00;99.90;;;;;;5030990;28;20041;-67
2022/04/12 01:04:22;;;;;;;15.43;11.30;;;8.00;99.90;;;;;;5017916;28;20045;-67
2022/04/12 01:06:48;;;;;;;15.82;11.20;;;7.90;99.90;;;;;;5037584;28;20107;-67
2022/04/12 01:09:14;;;;;;;13.63;10.55;;;8.00;99.90;;;;;;5020215;28;20038;-67
2022/04/12 01:11:40;;;;;;;16.33;10.57;;;7.90;99.90;;;;;;5003621;28;20103;-67
2022/04/12 01:14:07;;;;;;;14.07;11.40;;;7.90;99.90;;;;;;5020077;28;20037;-67
2022/04/12 01:16:33;;;;;;;14.30;10.68;;;7.90;99.90;;;;;;5037180;28;20045;-67
2022/04/12 01:18:59;;;;;;;13.52;10.50;;;7.90;99.90;;;;;;5037329;28;20044;-67
2022/04/12 01:21:31;;;;;;;13.57;10.60;;;7.80;99.90;;;;;;5003529;28;20041;-67
2022/04/12 01:24:06;;;;;;;14.30;10.40;;;7.80;99.90;;;;;;5037419;28;20049;-67
2022/04/12 01:26:32;;;;;;;14.75;11.13;;;7.70;99.90;;;;;;5019690;28;20045;-67
2022/04/12 01:28:58;;;;;;;15.13;10.50;;;7.80;99.90;;;;;;5019838;28;20124;-67
2022/04/12 01:31:27;;;;;;;14.90;10.77;;;7.80;99.90;;;;;;5006805;28;20124;-67
2022/04/12 01:33:53;;;;;;;13.60;10.75;;;7.80;99.90;;;;;;5000226;28;20045;-67
2022/04/12 01:36:19;;;;;;;14.23;10.35;;;7.80;99.90;;;;;;5017145;28;20131;-67
2022/04/12 01:38:46;;;;;;;16.58;10.95;;;7.70;99.90;;;;;;5017659;28;20034;-67
2022/04/12 01:41:12;;;;;;;15.27;10.88;;;7.70;99.90;;;;;;5010670;28;20045;-67
2022/04/12 01:43:38;;;;;;;15.45;11.05;;;7.70;99.90;;;;;;5019427;28;20428;-67
2022/04/12 01:46:03;;;;;;;14.52;9.80;;;7.60;99.90;;;;;;5036556;28;20041;-67
2022/04/12 01:48:29;;;;;;;13.43;10.32;;;7.60;99.90;;;;;;5036856;28;20069;-67
2022/04/12 01:50:55;;;;;;;13.20;10.40;;;7.60;99.90;;;;;;5019105;28;20065;-67
2022/04/12 01:53:20;;;;;;;13.40;10.13;;;7.60;99.90;;;;;;5036945;28;20045;-67
2022/04/12 01:55:46;;;;;;;15.23;10.50;;;7.50;99.90;;;;;;5037013;28;20068;-67
2022/04/12 01:58:12;;;;;;;15.27;10.43;;;7.50;99.90;;;;;;5036783;28;20474;-67
2022/04/12 02:00:38;;;;;;;12.73;9.65;;;7.50;99.90;;;;;;5019030;28;20060;-67
2022/04/12 02:03:05;;;;;;;13.38;9.75;;;7.50;99.90;;;;;;5019454;28;20111;-67
2022/04/12 02:05:30;;;;;;;15.43;10.52;;;7.40;99.90;;;;;;5036723;28;20049;-67
2022/04/12 02:07:56;;;;;;;15.80;10.35;;;7.50;99.90;;;;;;5036562;28;20041;-67
2022/04/12 02:10:22;;;;;;;15.38;9.93;;;7.40;99.90;;;;;;5014942;28;20354;-67
2022/04/12 02:12:51;;;;;;;12.55;9.82;;;7.40;99.90;;;;;;4999269;28;20562;-67
2022/04/12 02:15:17;;;;;;;12.90;9.98;;;7.40;99.90;;;;;;5016048;28;20034;-67
2022/04/12 02:17:43;;;;;;;14.13;9.90;;;7.40;99.90;;;;;;4999211;28;20048;-67
2022/04/12 02:20:09;;;;;;;12.85;9.60;;;7.40;99.90;;;;;;5001520;28;20041;-67
2022/04/12 02:22:35;;;;;;;12.63;9.77;;;7.40;99.90;;;;;;5036552;28;20095;-66
2022/04/12 02:25:01;;;;;;;13.50;9.70;;;7.30;99.90;;;;;;5019102;28;20041;-67
2022/04/12 02:27:27;;;;;;;13.15;10.10;;;7.30;99.90;;;;;;5018570;28;20124;-68
2022/04/12 02:29:52;;;;;;;13.60;9.45;;;7.30;99.90;;;;;;5036257;28;20081;-67
2022/04/12 02:32:18;;;;;;;15.07;9.70;;;7.30;99.90;;;;;;5018070;28;20045;-67
2022/04/12 02:34:44;;;;;;;14.25;9.88;;;7.30;99.90;;;;;;5019103;28;20079;-66
2022/04/12 02:37:09;;;;;;;14.23;10.25;;;7.30;99.90;;;;;;5036042;28;20075;-67
2022/04/12 02:39:35;;;;;;;13.65;8.85;;;7.30;99.90;;;;;;5036246;28;20041;-67
2022/04/12 02:42:01;;;;;;;12.55;9.38;;;7.30;99.90;;;;;;5018266;28;20450;-67
2022/04/12 02:44:26;;;;;;;11.82;9.05;;;7.30;99.90;;;;;;5001988;28;20132;-67
2022/04/12 02:46:52;;;;;;;11.88;8.95;;;7.30;99.90;;;;;;5035555;28;20128;-67
2022/04/12 02:49:18;;;;;;;11.77;9.05;;;7.30;99.90;;;;;;5018378;28;20458;-67
2022/04/12 02:51:45;;;;;;;11.80;9.45;;;7.40;99.90;;;;;;5021082;28;20455;-67
2022/04/12 02:54:12;;;;;;;11.82;9.00;;;7.30;99.90;;;;;;4998749;28;20048;-67
2022/04/12 02:56:38;;;;;;;13.27;9.25;;;7.40;99.90;;;;;;5015833;28;20066;-66
2022/04/12 02:59:04;;;;;;;13.63;9.52;;;7.40;99.90;;;;;;5016363;28;20501;-67
2022/04/12 03:01:30;;;;;;;13.38;9.60;;;7.40;99.90;;;;;;5028561;28;20079;-68
2022/04/12 03:03:56;;;;;;;12.82;9.23;;;7.40;99.90;;;;;;5035557;28;20130;-67
2022/04/12 03:06:21;;;;;;;12.13;8.95;;;7.40;99.90;;;;;;5017726;28;20041;-66
2022/04/12 03:08:47;;;;;;;12.93;9.25;;;7.30;99.90;;;;;;5035587;28;20037;-68
2022/04/12 03:11:13;;;;;;;12.82;8.73;;;7.40;99.90;;;;;;5016852;28;20065;-67
2022/04/12 03:13:38;;;;;;;12.45;8.93;;;7.40;99.90;;;;;;5035635;28;20053;-67
2022/04/12 03:16:04;;;;;;;12.10;8.70;;;7.40;99.90;;;;;;5017797;28;20034;-67
2022/04/12 03:18:30;;;;;;;13.73;8.88;;;7.40;99.90;;;;;;5001861;28;20430;-68
2022/04/12 03:20:55;;;;;;;13.30;8.82;;;7.40;99.90;;;;;;5017813;28;20049;-66
2022/04/12 03:23:21;;;;;;;10.65;8.65;;;7.40;99.90;;;;;;5035401;28;20052;-68
2022/04/12 03:25:46;;;;;;;13.57;9.23;;;7.40;99.90;;;;;;5001047;28;20041;-67
2022/04/12 03:28:14;;;;;;;12.65;8.40;;;7.30;99.90;;;;;;5017651;28;20049;-67
2022/04/12 03:30:40;;;;;;;11.70;9.25;;;7.30;99.90;;;;;;5034697;28;20398;-67
2022/04/12 03:33:05;;;;;;;12.20;8.93;;;7.30;99.90;;;;;;5017428;28;20037;-67
2022/04/12 03:35:32;;;;;;;12.05;8.95;;;7.30;99.90;;;;;;5017818;28;20132;-67
2022/04/12 03:38:01;;;;;;;12.57;9.00;;;7.30;99.90;;;;;;5034876;28;20120;-67
2022/04/12 03:40:33;;;;;;;13.63;9.00;;;7.30;99.90;;;;;;5034573;28;20410;-67
2022/04/12 03:43:05;;;;;;;15.13;9.20;;;7.30;99.90;;;;;;5017361;28;20458;-67
2022/04/12 03:45:31;;;;;;;12.63;9.48;;;7.30;99.90;;;;;;5034705;28;20397;-68
2022/04/12 03:47:57;;;;;;;13.13;9.15;;;7.20;99.90;;;;;;5016814;28;20076;-67
2022/04/12 03:50:24;;;;;;;10.95;8.85;;;7.20;99.90;;;;;;5034636;28;20104;-67
2022/04/12 03:52:50;;;;;;;14.30;8.77;;;7.20;99.90;;;;;;5034577;28;20470;-67
2022/04/12 03:55:30;;;;;;;12.40;8.88;;;7.10;99.90;;;;;;5017364;28;20033;-67
2022/04/12 03:57:59;;;;;;;13.77;9.07;;;7.10;99.90;;;;;;5034616;28;20041;-67
2022/04/12 04:00:27;;;;;;;14.10;9.27;;;7.10;99.90;;;;;;5013434;28;20045;-67
2022/04/12 04:02:53;;;;;;;11.90;8.52;;;7.20;99.90;;;;;;4997478;28;20038;-67
2022/04/12 04:05:18;;;;;;;11.43;8.70;;;7.10;99.90;;;;;;4997333;28;20347;-67
2022/04/12 04:07:44;;;;;;;11.55;8.98;;;7.10;99.90;;;;;;5014597;28;20037;-66
2022/04/12 04:10:09;;;;;;;12.30;8.93;;;7.20;99.90;;;;;;4997472;28;20041;-67
2022/04/12 04:12:35;;;;;;;13.68;9.10;;;7.10;99.90;;;;;;5014762;28;20446;-67
2022/04/12 04:15:01;;;;;;;12.30;8.57;;;7.10;99.90;;;;;;4997247;28;20078;-68
2022/04/12 04:17:26;;;;;;;12.02;8.90;;;7.10;99.90;;;;;;5014223;28;20056;-67
2022/04/12 04:19:52;;;;;;;12.18;9.13;;;7.10;99.90;;;;;;5014681;28;20037;-67
2022/04/12 04:22:17;;;;;;;13.02;8.45;;;7.10;99.90;;;;;;5033054;28;20441;-67
2022/04/12 04:24:43;;;;;;;11.70;8.57;;;7.10;99.90;;;;;;5017028;28;20041;-67
2022/04/12 04:27:09;;;;;;;13.95;9.18;;;7.10;99.90;;;;;;5033714;28;20473;-67
2022/04/12 04:29:35;;;;;;;12.20;8.82;;;7.10;99.90;;;;;;5000557;28;20037;-67
2022/04/12 04:32:02;;;;;;;15.43;9.23;;;7.00;99.90;;;;;;5000213;28;20046;-68
2022/04/12 04:34:27;;;;;;;12.35;8.95;;;7.00;99.90;;;;;;4997190;28;20046;-68
2022/04/12 04:36:53;;;;;;;12.18;8.88;;;7.10;99.90;;;;;;5042950;28;20496;-67
2022/04/12 04:39:18;;;;;;;13.13;9.10;;;7.00;99.90;;;;;;5052695;28;20041;-66
2022/04/12 04:41:44;;;;;;;13.15;9.10;;;7.00;99.90;;;;;;5046105;28;20068;-67
2022/04/12 04:44:10;;;;;;;14.77;9.20;;;7.00;99.90;;;;;;5052304;28;20381;-67
2022/04/12 04:46:35;;;;;;;11.57;8.68;;;7.00;99.90;;;;;;5033952;28;20057;-67
2022/04/12 04:49:01;;;;;;;12.00;8.20;;;7.00;99.90;;;;;;5030007;28;20034;-67
2022/04/12 04:51:27;;;;;;;13.38;9.35;;;7.00;99.90;;;;;;5038428;28;20037;-67
2022/04/12 04:53:59;;;;;;;12.70;9.00;;;6.90;99.90;;;;;;5015978;28;20045;-68
2022/04/12 04:56:27;;;;;;;14.35;9.18;;;6.90;99.90;;;;;;5025587;28;20037;-67
2022/04/12 04:58:54;;;;;;;15.60;9.70;;;6.90;99.90;;;;;;5021050;28;20124;-68
2022/04/12 05:01:20;;;;;;;12.55;9.10;;;6.90;99.90;;;;;;5024670;28;20049;-67
2022/04/12 05:03:47;;;;;;;13.45;8.80;;;6.90;99.90;;;;;;5017607;28;20099;-66
2022/04/12 05:06:14;;;;;;;15.82;9.50;;;7.00;99.90;;;;;;5053370;28;20503;-67
2022/04/12 05:08:40;;;;;;;11.98;8.50;;;7.00;99.90;;;;;;5036271;28;20457;-67
2022/04/12 05:11:06;;;;;;;12.57;9.07;;;7.00;99.90;;;;;;5026313;28;20041;-67
2022/04/12 05:13:31;;;;;;;12.13;8.95;;;7.00;99.90;;;;;;5023571;28;20426;-67
2022/04/12 05:15:57;;;;;;;14.13;8.95;;;7.00;99.90;;;;;;5026034;28;20039;-67
2022/04/12 05:18:22;;;;;;;12.40;9.10;;;7.10;99.90;;;;;;5032646;28;20047;-68
2022/04/12 05:20:49;;;;;;;12.70;8.55;;;7.10;99.90;;;;;;5035497;28;20362;-68
2022/04/12 05:23:16;;;;;;;12.80;8.88;;;7.20;99.90;;;;;;5048431;28;20128;-66
2022/04/12 05:25:41;;;;;;;13.35;9.15;;;7.30;99.90;;;;;;5053509;28;20056;-67
2022/04/12 05:28:07;;;;;;;11.18;8.23;;;7.30;99.90;;;;;;5053649;28;20377;-67
2022/04/12 05:30:33;;;;;;;11.50;8.90;;;7.30;99.90;;;;;;5030392;28;20129;-67
2022/04/12 05:32:59;;;;;;;13.73;8.85;;;7.30;99.90;;;;;;5016020;28;20126;-67
2022/04/12 05:35:24;;;;;;;12.85;8.80;;;7.40;99.90;;;;;;5033058;28;20033;-67
2022/04/12 05:37:52;;;;;;;12.05;9.10;;;7.50;99.90;;;;;;5032829;28;20055;-67
2022/04/12 05:40:19;;;;;;;13.45;8.90;;;7.60;99.90;;;;;;5033348;28;20087;-67
2022/04/12 05:42:45;;;;;;;13.63;8.52;;;7.60;99.90;;;;;;5033689;28;20128;-67
2022/04/12 05:45:12;;;;;;;16.20;9.48;;;7.70;99.90;;;;;;4999749;28;20060;-67
2022/04/12 05:47:51;;;;;;;12.60;8.60;;;7.80;99.90;;;;;;5032745;28;20041;-68
2022/04/12 05:50:28;;;;;;;14.63;8.45;;;7.80;99.90;;;;;;5034441;28;20450;-66
2022/04/12 05:52:55;;;;;;;12.88;8.63;;;7.90;99.90;;;;;;5003162;28;20522;-66
2022/04/12 05:55:22;;;;;;;12.52;8.35;;;8.00;99.90;;;;;;5036935;28;20048;-68
2022/04/12 05:58:07;;;;;;;11.32;8.35;;;8.00;99.90;;;;;;5036980;28;20087;-67
2022/04/12 06:00:34;;;;;;;12.52;8.00;;;8.00;99.90;;;;;;5019008;28;20406;-67
2022/04/12 06:03:02;;;;;;;11.85;8.55;;;8.10;99.90;;;;;;5036194;28;20068;-69
2022/04/12 06:05:30;;;;;;;10.75;7.72;;;8.10;99.90;;;;;;5018726;28;20046;-67
2022/04/12 06:07:56;;;;;;;10.60;7.60;;;8.10;99.90;;;;;;5019414;28;20366;-67
2022/04/12 06:10:22;;;;;;;12.57;8.18;;;8.20;99.90;;;;;;5018793;28;20463;-67
2022/04/12 06:12:50;;;;;;;10.02;7.55;;;8.30;99.90;;;;;;5036728;28;20037;-68
2022/04/12 06:15:15;;;;;;;10.93;7.68;;;8.40;99.90;;;;;;5036692;28;20136;-68
2022/04/12 06:17:41;;;;;;;11.43;7.85;;;8.40;99.90;;;;;;5018928;28;20123;-67
2022/04/12 06:20:07;;;;;;;11.30;7.85;;;8.50;99.90;;;;;;5035712;28;20045;-67
2022/04/12 06:22:34;;;;;;;12.40;7.78;;;8.50;99.90;;;;;;5017064;28;20049;-67
2022/04/12 06:25:00;;;;;;;12.95;7.75;;;8.60;99.90;;;;;;5016677;28;20042;-67
2022/04/12 06:27:36;;;;;;;12.23;8.15;;;8.80;99.90;;;;;;5016514;28;20092;-67
2022/04/12 06:30:08;;;;;;;11.68;7.78;;;8.80;99.90;;;;;;5016474;28;20446;-67
2022/04/12 06:32:34;;;;;;;14.77;8.20;;;8.80;99.90;;;;;;5035765;28;20041;-66
2022/04/12 06:35:01;;;;;;;11.50;7.95;;;8.70;99.90;;;;;;5018801;28;20053;-68
2022/04/12 06:37:27;;;;;;;11.05;7.57;;;8.80;99.90;;;;;;5035912;28;20033;-66
2022/04/12 06:39:53;;;;;;;10.55;7.78;;;8.80;99.90;;;;;;5036206;28;20052;-67
2022/04/12 06:42:20;;;;;;;11.55;7.90;;;8.90;99.90;;;;;;5035774;28;20171;-67
2022/04/12 06:44:45;;;;;;;12.43;7.72;;;8.80;99.90;;;;;;5035816;28;20517;-67
2022/04/12 06:47:13;;;;;;;11.45;8.10;;;8.90;99.90;;;;;;5017909;28;20084;-68
2022/04/12 06:49:38;;;;;;;11.55;7.03;;;9.20;99.90;;;;;;5018754;28;20119;-67
2022/04/12 06:52:04;;;;;;;11.65;7.38;;;9.50;99.90;;;;;;5018282;28;20049;-67
2022/04/12 06:54:30;;;;;;;10.85;7.03;;;9.60;99.90;;;;;;5035919;28;20374;-68
2022/04/12 06:56:55;;;;;;;11.30;7.22;;;9.70;99.90;;;;;;5035701;28;20029;-67
2022/04/12 06:59:22;;;;;;;12.23;8.02;;;9.70;99.90;;;;;;5035736;28;20116;-66
2022/04/12 07:01:48;;;;;;;10.02;7.07;;;9.60;99.90;;;;;;5034909;28;20076;-67
2022/04/12 07:04:13;;;;;;;13.40;8.35;;;9.50;99.90;;;;;;5035834;28;20458;-68
2022/04/12 07:06:39;;;;;;;12.68;7.22;;;9.50;99.90;;;;;;5017889;28;20037;-67
2022/04/12 07:09:05;;;;;;;12.52;7.53;;;10.00;99.90;;;;;;5018498;28;20147;-67
2022/04/12 07:11:31;;;;;;;11.10;7.28;;;10.40;99.90;;;;;;5024449;28;20093;-67
2022/04/12 07:13:56;;;;;;;13.43;7.40;;;10.60;99.90;;;;;;5015842;28;20074;-67
2022/04/12 07:16:22;;;;;;;9.13;6.57;;;10.80;99.90;;;;;;5015425;28;20470;-66
2022/04/12 07:18:48;;;;;;;14.27;8.00;;;10.90;99.90;;;;;;5015667;28;20503;-67
2022/04/12 07:21:15;;;;;;;10.63;7.22;;;11.00;99.90;;;;;;5024013;28;20045;-66
2022/04/12 07:23:41;;;;;;;10.90;7.90;;;11.10;99.90;;;;;;5035494;28;20171;-67
2022/04/12 07:26:07;;;;;;;9.88;7.18;;;11.10;99.90;;;;;;5017658;28;20123;-67
2022/04/12 07:28:32;;;;;;;10.95;7.47;;;11.20;99.90;;;;;;5035181;28;20121;-67
2022/04/12 07:30:58;;;;;;;12.07;7.32;;;11.30;99.90;;;;;;5017374;28;20046;-67
2022/04/12 07:33:24;;;;;;;11.02;6.93;;;11.40;99.90;;;;;;5035096;28;20142;-66
2022/04/12 07:35:49;;;;;;;9.13;6.82;;;11.40;99.90;;;;;;5034518;28;20133;-68
2022/04/12 07:38:15;;;;;;;10.55;7.15;;;11.50;99.90;;;;;;5017509;28;20095;-66
2022/04/12 07:40:41;;;;;;;12.68;7.50;;;11.60;99.90;;;;;;5017596;28;20056;-67
2022/04/12 07:43:06;;;;;;;10.82;7.30;;;11.70;99.90;;;;;;5017472;28;20045;-66
2022/04/12 07:45:32;;;;;;;11.38;7.40;;;11.80;99.90;;;;;;5034684;28;20458;-66
2022/04/12 07:47:59;;;;;;;13.60;7.35;;;11.90;99.90;;;;;;5017522;28;20045;-66
2022/04/12 07:50:25;;;;;;;10.35;6.70;;;12.00;99.90;;;;;;5034575;28;20034;-66
2022/04/12 07:52:51;;;;;;;8.88;6.47;;;12.10;99.90;;;;;;5000954;28;20537;-67
2022/04/12 07:55:17;;;;;;;10.57;7.30;;;12.30;99.90;;;;;;5034446;28;20116;-66
2022/04/12 07:57:42;;;;;;;11.23;7.00;;;12.40;99.90;;;;;;5017450;28;20041;-66
2022/04/12 08:00:09;;;;;;;12.70;7.47;;;12.60;99.90;;;;;;5034531;28;20049;-66
2022/04/12 08:02:34;;;;;;;10.63;7.00;;;12.70;99.90;;;;;;5016768;28;20093;-66
2022/04/12 08:05:00;;;;;;;10.20;6.95;;;12.70;99.90;;;;;;5034605;28;20423;-67
2022/04/12 08:07:25;;;;;;;10.15;7.07;;;12.90;99.90;;;;;;5034409;28;20037;-67
2022/04/12 08:09:51;;;;;;;12.98;7.28;;;13.00;99.90;;;;;;5034064;28;20368;-67
2022/04/12 08:12:16;;;;;;;12.43;7.18;;;13.00;99.90;;;;;;5016870;28;20041;-66
2022/04/12 08:14:42;;;;;;;10.75;6.55;;;13.20;99.90;;;;;;5033813;28;20033;-66
2022/04/12 08:17:08;;;;;;;11.48;6.60;;;13.30;99.90;;;;;;5034012;28;20478;-66
2022/04/12 08:19:33;;;;;;;9.45;7.22;;;13.30;99.90;;;;;;5016869;28;20052;-66
2022/04/12 08:22:02;;;;;;;13.65;7.30;;;13.40;99.90;;;;;;5034149;28;20142;-66
2022/04/12 08:24:29;;;;;;;10.18;7.50;;;13.50;99.90;;;;;;5034342;28;20045;-66
2022/04/12 08:26:54;;;;;;;13.85;7.50;;;13.60;99.90;;;;;;5016439;28;20049;-66
2022/04/12 08:29:20;;;;;;;13.35;7.00;;;13.80;99.90;;;;;;5034110;28;20374;-66
2022/04/12 08:31:45;;;;;;;10.02;7.05;;;14.00;99.80;;;;;;5033711;28;20033;-66
2022/04/12 08:34:12;;;;;;;9.85;7.05;;;14.10;99.60;;;;;;5034370;28;20037;-66
2022/04/12 08:36:38;;;;;;;9.82;6.75;;;14.10;99.30;;;;;;5033440;28;20045;-66
2022/04/12 08:39:03;;;;;;;10.57;6.93;;;14.00;99.00;;;;;;5034067;28;20033;-66
2022/04/12 08:41:31;;;;;;;12.13;6.70;;;14.20;99.10;;;;;;5023763;28;20045;-67
2022/04/12 08:43:59;;;;;;;9.70;6.72;;;14.30;98.90;;;;;;4996670;28;20050;-66
2022/04/12 08:46:27;;;;;;;12.95;6.88;;;14.30;98.40;;;;;;5013530;28;20050;-67
2022/04/12 08:48:54;;;;;;;9.85;7.13;;;14.30;98.50;;;;;;5014504;28;20045;-66
2022/04/12 08:51:20;;;;;;;11.20;7.18;;;14.30;98.70;;;;;;5004980;28;20046;-65
2022/04/12 08:53:45;;;;;;;10.15;7.18;;;14.50;98.90;;;;;;5034226;28;20037;-67
2022/04/12 08:56:12;;;;;;;10.85;6.93;;;14.60;98.90;;;;;;5033507;28;20124;-67
2022/04/12 08:58:37;;;;;;;10.55;6.90;;;14.70;98.40;;;;;;5016365;28;20052;-67
2022/04/12 09:01:03;;;;;;;10.70;6.47;;;14.80;98.70;;;;;;5026969;28;20041;-67
2022/04/12 09:03:29;;;;;;;9.73;6.50;;;14.80;98.40;;;;;;5014305;28;20042;-67
2022/04/12 09:05:55;;;;;;;14.20;7.60;;;14.80;98.50;;;;;;5013840;28;20068;-67
2022/04/12 09:08:39;;;;;;;9.32;6.72;;;14.70;98.70;;;;;;5014166;28;20362;-67
2022/04/12 09:11:07;;;;;;;10.35;7.10;;;15.00;99.00;;;;;;5003124;28;20060;-67
2022/04/12 09:13:35;;;;;;;10.30;6.60;;;15.00;98.60;;;;;;5033491;28;20469;-67
2022/04/12 09:16:01;;;;;;;11.32;6.78;;;15.30;98.30;;;;;;5015953;28;20037;-68
2022/04/12 09:18:45;;;;;;;10.38;7.20;;;15.30;98.10;;;;;;5033693;28;20044;-67
2022/04/12 09:21:13;;;;;;;13.73;7.63;;;15.40;97.70;;;;;;5026600;28;20037;-67
2022/04/12 09:23:51;;;;;;;10.80;6.85;;;15.60;97.90;;;;;;4996540;28;20295;-67
2022/04/12 09:26:21;;;;;;;10.57;6.40;;;15.60;97.80;;;;;;5016524;28;20073;-67
2022/04/12 09:28:46;;;;;;;9.95;6.40;;;15.60;97.60;;;;;;5017853;28;20049;-67
2022/04/12 09:31:13;;;;;;;9.18;6.38;;;15.70;97.50;;;;;;5024705;28;20033;-67
2022/04/12 09:33:40;;;;;;;8.70;6.20;;;15.90;96.80;;;;;;5037625;28;20048;-67
2022/04/12 09:36:06;;;;;;;10.82;6.50;;;16.00;96.90;;;;;;5037267;28;20059;-67
2022/04/12 09:38:33;;;;;;;10.88;5.90;;;16.10;96.40;;;;;;5037326;28;20037;-67
2022/04/12 09:41:17;;;;;;;8.85;5.80;;;16.30;96.60;;;;;;5031809;28;20038;-67
2022/04/12 09:44:08;;;;;;;9.57;6.68;;;16.30;96.20;;;;;;5017127;28;20387;-67
2022/04/12 09:46:42;;;;;;;8.98;5.63;;;16.40;96.00;;;;;;5017087;28;20064;-67
2022/04/12 09:49:08;;;;;;;8.82;5.93;;;16.50;96.00;;;;;;5017378;28;20037;-67
2022/04/12 09:51:37;;;;;;;10.88;6.53;;;16.50;96.00;;;;;;5009360;28;20045;-67
2022/04/12 09:54:08;;;;;;;9.23;5.50;;;16.50;96.00;;;;;;5019816;28;20120;-67
2022/04/12 09:56:36;;;;;;;9.00;5.90;;;16.50;95.70;;;;;;5036582;28;20347;-68
2022/04/12 09:59:06;;;;;;;8.75;5.90;;;16.60;95.90;;;;;;5036758;28;20041;-67
2022/04/12 10:01:39;;;;;;;8.00;5.95;;;16.80;96.10;;;;;;5026884;28;20450;-67
2022/04/12 10:04:08;;;;;;;8.68;5.70;;;16.90;95.50;;;;;;5016865;28;20459;-67
2022/04/12 10:06:38;;;;;;;9.13;6.10;;;17.00;95.50;;;;;;5016818;28;20080;-68
2022/04/12 10:09:07;;;;;;;9.30;5.90;;;17.00;95.30;;;;;;5016901;28;20518;-68
2022/04/12 10:11:33;;;;;;;8.70;5.70;;;17.10;95.20;;;;;;5026222;28;20045;-67
2022/04/12 10:14:01;;;;;;;11.07;5.32;;;17.10;95.60;;;;;;5018971;28;20374;-67
2022/04/12 10:16:26;;;;;;;8.32;5.88;;;17.20;95.10;;;;;;5036207;28;20037;-67
2022/04/12 10:18:54;;;;;;;12.07;5.85;;;17.20;94.70;;;;;;5036784;28;20095;-68
2022/04/12 10:21:22;;;;;;;11.00;5.97;;;17.10;94.40;;;;;;5036456;28;20056;-67
2022/04/12 10:23:56;;;;;;;9.88;5.68;;;17.30;94.50;;;;;;5036564;28;20081;-67
2022/04/12 10:26:24;;;;;;;8.60;5.80;;;17.30;94.30;;;;;;5018802;28;20049;-67
2022/04/12 10:29:00;;;;;;;11.27;6.13;;;17.30;94.60;;;;;;5018878;28;20407;-68
2022/04/12 10:31:30;;;;;;;8.50;5.40;;;17.30;94.10;;;;;;5036005;28;20041;-67
2022/04/12 10:34:23;;;;;;;10.13;5.38;;;17.50;94.50;;;;;;5019433;28;20117;-68
2022/04/12 10:36:54;;;;;;;10.55;5.60;;;17.50;93.90;;;;;;5034710;28;20033;-67
2022/04/12 10:39:49;;;;;;;9.60;5.82;;;17.60;94.30;;;;;;5036264;28;20076;-69
2022/04/12 10:42:24;;;;;;;9.07;5.45;;;17.80;94.10;;;;;;5003488;28;20042;-68
2022/04/12 10:44:57;;;;;;;8.75;6.07;;;17.80;94.50;;;;;;4998944;28;20128;-68
2022/04/12 10:47:30;;;;;;;11.25;6.32;;;17.80;94.10;;;;;;5016239;28;20324;-67
2022/04/12 10:50:04;;;;;;;8.90;5.73;;;17.80;94.40;;;;;;5015878;28;20367;-66
2022/04/12 10:52:35;;;;;;;11.13;6.20;;;17.90;94.30;;;;;;5033289;28;20041;-67
2022/04/12 10:55:06;;;;;;;11.50;6.38;;;18.00;94.20;;;;;;5035650;28;20091;-66
2022/04/12 10:57:33;;;;;;;9.73;6.30;;;17.90;93.70;;;;;;5035840;28;20048;-65
2022/04/12 11:00:03;;;;;;;10.60;6.28;;;17.80;94.30;;;;;;5035681;28;20045;-66
2022/04/12 11:02:35;;;;;;;9.10;6.15;;;17.90;94.60;;;;;;5018342;28;20050;-65
2022/04/12 11:05:01;;;;;;;9.55;6.10;;;18.00;94.40;;;;;;5015457;28;20042;-66
2022/04/12 11:07:34;;;;;;;12.55;7.03;;;18.10;94.30;;;;;;5016096;28;20041;-65
2022/04/12 11:10:13;;;;;;;11.60;6.50;;;18.20;94.20;;;;;;4998523;28;20053;-68
2022/04/12 11:12:41;;;;;;;8.68;5.78;;;18.30;94.10;;;;;;5016541;28;20374;-65
2022/04/12 11:15:28;;;;;;;9.13;6.47;;;18.50;94.30;;;;;;5017779;28;20056;-66
2022/04/12 11:18:14;;;;;;;9.85;6.35;;;18.40;94.00;;;;;;5017753;28;20069;-65
2022/04/12 11:20:43;;;;;;;10.00;6.80;;;18.50;94.00;;;;;;5035212;28;20056;-65
2022/04/12 11:23:13;;;;;;;9.52;6.40;;;18.50;93.90;;;;;;5035409;28;20041;-68
2022/04/12 11:25:47;;;;;;;9.93;6.43;;;18.50;93.90;;;;;;5017436;28;20034;-68
2022/04/12 11:28:15;;;;;;;9.02;6.47;;;18.60;94.20;;;;;;5035425;28;20053;-70
2022/04/12 11:30:51;;;;;;;9.07;5.72;;;18.60;93.50;;;;;;5034797;28;20041;-68
2022/04/12 11:33:16;;;;;;;9.30;5.97;;;18.70;93.20;;;;;;5035216;28;20042;-69
2022/04/12 11:35:42;;;;;;;8.68;5.72;;;18.70;93.40;;;;;;5034699;28;20037;-68
2022/04/12 11:38:08;;;;;;;9.75;6.10;;;18.80;93.20;;;;;;5035093;28;20034;-68
2022/04/12 11:40:33;;;;;;;12.25;6.72;;;18.90;93.20;;;;;;5034795;28;20472;-68
2022/04/12 11:42:59;;;;;;;11.30;6.28;;;18.90;93.20;;;;;;5034735;28;20053;-65
2022/04/12 11:45:32;;;;;;;10.07;6.20;;;18.90;93.40;;;;;;5034686;28;20374;-66
2022/04/12 11:47:58;;;;;;;10.17;6.03;;;19.10;93.10;;;;;;5034855;28;20041;-66
2022/04/12 11:50:24;;;;;;;11.13;6.30;;;19.20;92.80;;;;;;5034937;28;20124;-69
2022/04/12 11:52:49;;;;;;;9.90;6.18;;;19.30;92.70;;;;;;5034501;28;20116;-69
2022/04/12 11:55:15;;;;;;;13.10;6.70;;;19.40;92.60;;;;;;5034803;28;20047;-68
2022/04/12 11:57:41;;;;;;;8.80;5.70;;;19.40;92.40;;;;;;5034863;28;20398;-68
2022/04/12 12:00:08;;;;;;;10.23;6.63;;;19.40;92.80;;;;;;5034798;28;20484;-67
2022/04/12 12:02:38;;;;;;;11.98;6.57;;;19.40;92.40;;;;;;5034071;28;20117;-67
2022/04/12 12:05:09;;;;;;;10.00;6.20;;;19.40;92.30;;;;;;5016983;28;20123;-68
2022/04/12 12:07:36;;;;;;;10.63;6.47;;;19.60;92.70;;;;;;5034571;28;20038;-68
2022/04/12 12:10:09;;;;;;;10.52;6.60;;;19.60;92.30;;;;;;5016814;28;20049;-68
2022/04/12 12:12:45;;;;;;;9.25;6.13;;;19.70;92.00;;;;;;5034357;28;20037;-67
2022/04/12 12:15:27;;;;;;;9.57;6.30;;;19.90;92.40;;;;;;5016695;28;20041;-68
2022/04/12 12:17:55;;;;;;;9.35;6.18;;;20.00;92.20;;;;;;5034188;28;20037;-68
2022/04/12 12:20:22;;;;;;;11.07;6.47;;;20.30;91.90;;;;;;5016885;28;20045;-69
2022/04/12 12:22:51;;;;;;;8.63;6.03;;;20.50;92.00;;;;;;4997690;28;20406;-68
2022/04/12 12:25:21;;;;;;;10.80;6.03;;;20.50;91.20;;;;;;5014328;28;20041;-67
2022/04/12 12:27:50;;;;;;;9.50;6.15;;;20.60;90.70;;;;;;5014565;28;20052;-65
2022/04/12 12:30:24;;;;;;;8.80;6.15;;;20.30;90.60;;;;;;5014166;28;20377;-66
2022/04/12 12:32:56;;;;;;;12.63;6.13;;;20.30;91.50;;;;;;5033891;28;20057;-67
2022/04/12 12:35:25;;;;;;;9.65;6.05;;;20.20;91.00;;;;;;5034102;28;20037;-65
2022/04/12 12:37:50;;;;;;;8.60;6.25;;;20.10;90.20;;;;;;5033973;28;20072;-67
2022/04/12 12:40:24;;;;;;;9.98;6.53;;;20.00;90.30;;;;;;5033967;28;20116;-66
2022/04/12 12:42:51;;;;;;;10.45;6.80;;;20.00;90.80;;;;;;5016416;28;20080;-66
2022/04/12 12:45:22;;;;;;;10.77;7.00;;;20.00;91.20;;;;;;5033387;28;20065;-68
2022/04/12 12:47:58;;;;;;;10.60;7.25;;;20.00;90.40;;;;;;5016394;28;20045;-68